createdAt,value
2022-11-21T00:01:15.976Z,20.67
2022-11-21T00:03:43.581Z,19.60
2022-11-21T00:06:10.741Z,20.80
2022-11-21T00:08:38.238Z,19.80
2022-11-21T00:11:05.343Z,19.60
2022-11-21T00:13:32.843Z,18.95
2022-11-21T00:16:07.062Z,20.65
2022-11-21T00:18:35.519Z,19.88
2022-11-21T00:21:07.506Z,17.70
2022-11-21T00:23:35.159Z,17.23
2022-11-21T00:26:10.004Z,15.75
2022-11-21T00:28:37.884Z,15.18
2022-11-21T00:31:06.022Z,16.77
2022-11-21T00:33:36.676Z,16.73
2022-11-21T00:36:08.699Z,18.90
2022-11-21T00:38:36.667Z,16.70
2022-11-21T00:41:04.306Z,16.60
2022-11-21T00:43:32.286Z,17.27
2022-11-21T00:46:01.485Z,17.42
2022-11-21T00:48:30.042Z,16.77
2022-11-21T00:50:57.492Z,15.70
2022-11-21T00:53:24.882Z,16.23
2022-11-21T00:55:52.033Z,17.33
2022-11-21T00:58:19.475Z,16.38
2022-11-21T01:00:46.778Z,16.88
2022-11-21T01:03:14.412Z,16.80
2022-11-21T01:05:41.563Z,17.17
2022-11-21T01:08:09.035Z,16.67
2022-11-21T01:10:36.657Z,17.40
2022-11-21T01:13:04.191Z,16.60
2022-11-21T01:15:31.299Z,16.15
2022-11-21T01:17:58.737Z,17.20
2022-11-21T01:20:26.054Z,17.33
2022-11-21T01:22:54.575Z,15.52
2022-11-21T01:25:21.739Z,16.42
2022-11-21T01:27:49.157Z,14.80
2022-11-21T01:30:17.436Z,16.70
2022-11-21T01:32:48.454Z,16.30
2022-11-21T01:35:16.013Z,17.55
2022-11-21T01:37:43.465Z,16.33
2022-11-21T01:40:11.607Z,18.13
2022-11-21T01:43:15.226Z,16.70
2022-11-21T01:45:58.410Z,17.05
2022-11-21T01:48:53.665Z,17.45
2022-11-21T01:51:25.112Z,17.88
2022-11-21T01:54:08.954Z,18.20
2022-11-21T01:56:47.243Z,23.38
2022-11-21T01:59:21.394Z,17.90
2022-11-21T02:01:52.045Z,19.20
2022-11-21T02:04:22.496Z,19.15
2022-11-21T02:06:49.668Z,18.80
2022-11-21T02:09:18.269Z,20.15
2022-11-21T02:11:52.574Z,18.65
2022-11-21T02:14:20.124Z,18.98
2022-11-21T02:16:47.559Z,17.50
2022-11-21T02:19:33.628Z,18.85
2022-11-21T02:22:12.541Z,19.33
2022-11-21T02:24:57.638Z,17.35
2022-11-21T02:27:24.797Z,17.05
2022-11-21T02:29:52.374Z,18.08
2022-11-21T02:32:36.883Z,18.83
2022-11-21T02:35:05.315Z,18.73
2022-11-21T02:37:35.501Z,18.90
2022-11-21T02:40:09.922Z,19.08
2022-11-21T02:42:42.092Z,20.90
2022-11-21T02:45:15.694Z,19.25
2022-11-21T02:47:45.299Z,22.67
2022-11-21T02:50:15.627Z,21.20
2022-11-21T02:52:42.873Z,22.15
2022-11-21T02:55:12.008Z,25.42
2022-11-21T02:57:40.186Z,23.83
2022-11-21T03:00:09.477Z,24.52
2022-11-21T03:02:37.747Z,25.70
2022-11-21T03:05:09.022Z,24.08
2022-11-21T03:07:36.583Z,20.47
2022-11-21T03:10:05.026Z,26.15
2022-11-21T03:12:32.207Z,23.80
2022-11-21T03:14:59.608Z,23.38
2022-11-21T03:17:26.739Z,24.05
2022-11-21T03:19:54.144Z,26.88
2022-11-21T03:22:21.296Z,26.48
2022-11-21T03:24:48.770Z,24.15
2022-11-21T03:27:15.931Z,26.63
2022-11-21T03:29:43.431Z,26.73
2022-11-21T03:32:10.707Z,25.13
2022-11-21T03:34:38.262Z,24.65
2022-11-21T03:37:05.385Z,26.13
2022-11-21T03:39:32.866Z,25.92
2022-11-21T03:42:00.007Z,25.20
2022-11-21T03:44:27.642Z,27.35
2022-11-21T03:46:54.834Z,23.40
2022-11-21T03:49:22.329Z,23.83
2022-11-21T03:51:49.514Z,23.13
2022-11-21T03:54:17.135Z,23.25
2022-11-21T03:56:44.269Z,24.05
2022-11-21T03:59:11.693Z,21.15
2022-11-21T04:01:38.888Z,22.40
2022-11-21T04:04:06.545Z,21.45
2022-11-21T04:06:33.782Z,20.55
2022-11-21T04:09:01.243Z,20.33
2022-11-21T04:11:28.593Z,20.95
2022-11-21T04:13:56.026Z,20.05
2022-11-21T04:16:23.183Z,20.02
2022-11-21T04:18:51.048Z,21.05
2022-11-21T04:21:18.163Z,19.60
2022-11-21T04:23:45.670Z,21.48
2022-11-21T04:26:12.850Z,19.27
2022-11-21T04:28:40.406Z,19.08
2022-11-21T04:31:11.057Z,19.75
2022-11-21T04:33:39.710Z,14.93
2022-11-21T04:36:08.418Z,18.35
2022-11-21T04:38:36.500Z,19.08
2022-11-21T04:41:04.851Z,19.00
2022-11-21T04:43:32.387Z,17.73
2022-11-21T04:45:59.555Z,17.23
2022-11-21T04:48:27.001Z,18.20
2022-11-21T04:50:54.170Z,17.52
2022-11-21T04:53:21.588Z,18.50
2022-11-21T04:55:49.057Z,19.30
2022-11-21T04:58:16.519Z,18.65
2022-11-21T05:00:43.714Z,18.95
2022-11-21T05:03:11.300Z,19.10
2022-11-21T05:05:38.707Z,18.65
2022-11-21T05:08:06.164Z,20.85
2022-11-21T05:10:53.341Z,20.50
2022-11-21T05:13:23.607Z,19.33
2022-11-21T05:15:56.564Z,19.27
2022-11-21T05:18:24.293Z,17.95
2022-11-21T05:20:51.428Z,20.25
2022-11-21T05:23:18.863Z,18.50
2022-11-21T05:25:46.007Z,18.10
2022-11-21T05:28:13.506Z,18.13
2022-11-21T05:30:40.692Z,19.58
2022-11-21T05:33:08.143Z,16.92
2022-11-21T05:35:40.129Z,18.67
2022-11-21T05:38:10.223Z,16.25
2022-11-21T05:40:37.857Z,16.52
2022-11-21T05:43:24.115Z,15.35
2022-11-21T05:45:51.263Z,16.45
2022-11-21T05:48:19.031Z,15.25
2022-11-21T05:50:52.092Z,15.70
2022-11-21T05:53:19.660Z,14.82
2022-11-21T05:55:46.925Z,16.25
2022-11-21T05:58:14.751Z,15.10
2022-11-21T06:00:42.197Z,16.38
2022-11-21T06:03:30.900Z,16.77
2022-11-21T06:06:16.953Z,17.65
2022-11-21T06:08:47.483Z,18.48
2022-11-21T06:11:16.725Z,17.88
2022-11-21T06:13:44.630Z,17.75
2022-11-21T06:16:16.885Z,17.30
2022-11-21T06:18:46.864Z,17.95
2022-11-21T06:21:22.370Z,16.85
2022-11-21T06:23:55.215Z,17.35
2022-11-21T06:26:25.033Z,17.80
2022-11-21T06:28:52.674Z,16.75
2022-11-21T06:31:22.429Z,14.63
2022-11-21T06:33:57.905Z,16.85
2022-11-21T06:36:25.781Z,16.92
2022-11-21T06:38:55.044Z,18.23
2022-11-21T06:41:24.674Z,16.77
2022-11-21T06:43:52.793Z,16.27
2022-11-21T06:46:19.999Z,18.70
2022-11-21T06:48:47.641Z,21.35
2022-11-21T06:51:22.951Z,21.60
2022-11-21T06:53:56.032Z,23.15
2022-11-21T06:56:28.209Z,23.42
2022-11-21T06:58:55.917Z,20.05
2022-11-21T07:01:23.960Z,24.15
2022-11-21T07:03:51.928Z,23.27
2022-11-21T07:06:19.397Z,21.85
2022-11-21T07:08:52.469Z,24.55
2022-11-21T07:11:27.318Z,24.50
2022-11-21T07:13:54.874Z,24.52
2022-11-21T07:16:22.099Z,26.23
2022-11-21T07:18:49.503Z,21.77
2022-11-21T07:21:16.894Z,24.45
2022-11-21T07:23:44.344Z,24.00
2022-11-21T07:26:11.571Z,26.98
2022-11-21T07:28:39.158Z,24.20
2022-11-21T07:31:12.884Z,24.98
2022-11-21T07:33:43.437Z,23.17
2022-11-21T07:36:13.920Z,26.52
2022-11-21T07:38:42.102Z,23.48
2022-11-21T07:41:09.933Z,24.55
2022-11-21T07:43:37.390Z,22.35
2022-11-21T07:46:04.754Z,22.77
2022-11-21T07:48:32.205Z,26.65
2022-11-21T07:50:59.367Z,23.85
2022-11-21T07:53:26.844Z,24.67
2022-11-21T07:55:54.036Z,23.70
2022-11-21T07:58:21.445Z,23.60
2022-11-21T08:00:48.593Z,22.70
2022-11-21T08:03:16.045Z,24.30
2022-11-21T08:05:44.309Z,24.15
2022-11-21T08:08:13.566Z,23.20
2022-11-21T08:10:45.666Z,21.48
2022-11-21T08:13:14.328Z,20.83
2022-11-21T08:15:41.567Z,20.70
2022-11-21T08:18:19.193Z,19.65
2022-11-21T08:20:46.996Z,19.83
2022-11-21T08:23:14.512Z,19.45
2022-11-21T08:25:42.879Z,23.17
2022-11-21T08:28:11.859Z,21.58
2022-11-21T08:30:40.005Z,24.25
2022-11-21T08:33:08.058Z,22.23
2022-11-21T08:35:37.894Z,23.50
2022-11-21T08:38:06.066Z,22.98
2022-11-21T08:40:34.154Z,22.63
2022-11-21T08:43:07.109Z,23.08
2022-11-21T08:45:35.928Z,22.50
2022-11-21T08:48:03.703Z,26.92
2022-11-21T08:50:32.190Z,25.80
2022-11-21T08:53:01.784Z,22.73
2022-11-21T08:55:30.205Z,23.73
2022-11-21T08:57:58.538Z,22.42
2022-11-21T09:00:26.476Z,23.20
2022-11-21T09:02:53.952Z,21.98
2022-11-21T09:05:21.120Z,23.13
2022-11-21T09:07:48.790Z,27.00
2022-11-21T09:10:16.249Z,24.08
2022-11-21T09:12:43.915Z,23.55
2022-11-21T09:15:29.980Z,27.88
2022-11-21T09:18:04.251Z,29.08
2022-11-21T09:20:34.194Z,32.65
2022-11-21T09:23:09.913Z,31.13
2022-11-21T09:25:37.150Z,35.13
2022-11-21T09:28:07.231Z,36.13
2022-11-21T09:30:35.208Z,35.90
2022-11-21T09:33:04.458Z,34.22
2022-11-21T09:35:32.288Z,39.75
2022-11-21T09:38:00.906Z,40.95
2022-11-21T09:40:31.192Z,41.55
2022-11-21T09:43:07.719Z,43.08
2022-11-21T09:45:44.407Z,44.80
2022-11-21T09:48:15.919Z,42.08
2022-11-21T09:50:52.275Z,40.50
2022-11-21T09:53:37.853Z,44.60
2022-11-21T09:56:07.139Z,45.67
2022-11-21T09:58:42.449Z,43.90
2022-11-21T10:01:14.025Z,41.80
2022-11-21T10:06:26.694Z,42.45
2022-11-21T10:09:14.167Z,45.78
2022-11-21T10:12:37.074Z,48.88
2022-11-21T10:15:38.128Z,44.05
2022-11-21T10:18:33.711Z,42.25
2022-11-21T10:21:16.036Z,40.67
2022-11-21T10:26:44.109Z,36.78
2022-11-21T10:29:27.659Z,40.92
2022-11-21T10:31:58.606Z,38.35
2022-11-21T10:34:31.029Z,38.03
2022-11-21T10:37:27.430Z,32.75
2022-11-21T10:39:55.966Z,36.65
2022-11-21T10:42:36.400Z,36.60
2022-11-21T10:45:17.302Z,40.05
2022-11-21T10:47:47.649Z,38.87
2022-11-21T10:50:51.827Z,39.88
2022-11-21T10:53:40.840Z,38.67
2022-11-21T10:56:12.851Z,36.25
2022-11-21T10:58:43.603Z,36.90
2022-11-21T11:01:48.055Z,38.90
2022-11-21T11:04:43.995Z,39.63
2022-11-21T11:07:27.055Z,41.28
2022-11-21T11:10:26.886Z,45.03
2022-11-21T11:13:38.799Z,43.08
2022-11-21T11:16:10.926Z,43.83
2022-11-21T11:18:47.116Z,46.22
2022-11-21T11:21:18.888Z,44.58
2022-11-21T11:23:47.424Z,41.72
2022-11-21T11:26:22.729Z,48.63
2022-11-21T11:28:50.157Z,44.63
2022-11-21T11:31:17.612Z,46.15
2022-11-21T11:33:47.720Z,43.42
2022-11-21T11:36:39.734Z,48.50
2022-11-21T11:39:51.827Z,46.28
2022-11-21T11:42:44.982Z,49.00
2022-11-21T11:45:30.790Z,49.17
2022-11-21T11:48:12.449Z,47.78
2022-11-21T11:50:49.822Z,48.17
2022-11-21T11:53:21.155Z,50.30
2022-11-21T11:56:17.004Z,50.43
2022-11-21T11:58:53.654Z,50.00
2022-11-21T12:01:39.867Z,48.22
2022-11-21T12:04:21.402Z,50.97
2022-11-21T12:10:14.264Z,55.97
2022-11-21T12:12:49.614Z,57.92
2022-11-21T12:15:41.781Z,53.63
2022-11-21T12:18:21.021Z,53.15
2022-11-21T12:20:51.457Z,51.70
2022-11-21T12:23:20.052Z,50.53
2022-11-21T12:26:33.723Z,52.58
2022-11-21T12:29:21.397Z,48.67
2022-11-21T12:31:57.699Z,53.50
2022-11-21T12:34:42.662Z,52.90
2022-11-21T12:37:41.092Z,54.72
2022-11-21T12:40:29.549Z,50.50
2022-11-21T12:43:29.765Z,49.22
2022-11-21T12:46:19.270Z,54.63
2022-11-21T12:49:14.596Z,50.00
2022-11-21T12:52:31.005Z,52.53
2022-11-21T12:55:04.390Z,46.78
2022-11-21T12:58:05.161Z,48.28
2022-11-21T13:00:44.794Z,51.35
2022-11-21T13:03:41.785Z,49.75
2022-11-21T13:06:22.597Z,51.35
2022-11-21T13:08:52.981Z,50.92
2022-11-21T13:12:00.531Z,53.95
2022-11-21T13:14:37.553Z,48.72
2022-11-21T13:17:11.030Z,48.88
2022-11-21T13:19:56.822Z,48.45
2022-11-21T13:22:36.528Z,50.20
2022-11-21T13:25:10.756Z,46.55
2022-11-21T13:27:39.985Z,51.90
2022-11-21T13:30:07.157Z,49.75
2022-11-21T13:32:46.285Z,50.90
2022-11-21T13:35:16.438Z,53.50
2022-11-21T13:38:08.487Z,50.30
2022-11-21T13:40:37.888Z,50.95
2022-11-21T13:43:35.519Z,53.38
2022-11-21T13:46:03.444Z,52.55
2022-11-21T13:48:31.262Z,52.33
2022-11-21T13:51:19.758Z,53.03
2022-11-21T13:54:18.252Z,51.35
2022-11-21T13:57:11.162Z,53.03
2022-11-21T13:59:49.831Z,51.55
2022-11-21T14:02:28.881Z,49.53
2022-11-21T14:05:37.945Z,52.22
2022-11-21T14:08:19.409Z,50.58
2022-11-21T14:10:48.451Z,52.13
2022-11-21T14:13:31.381Z,51.58
2022-11-21T14:16:10.994Z,52.70
2022-11-21T14:18:39.061Z,52.40
2022-11-21T14:21:08.358Z,57.65
2022-11-21T14:23:35.518Z,54.28
2022-11-21T14:26:04.383Z,52.40
2022-11-21T14:28:34.588Z,58.03
2022-11-21T14:31:10.546Z,51.67
2022-11-21T14:33:39.529Z,55.90
2022-11-21T14:36:21.127Z,54.45
2022-11-21T14:39:13.741Z,40.97
2022-11-21T14:41:39.781Z,52.28
2022-11-21T14:44:16.179Z,52.65
2022-11-21T14:46:45.339Z,51.92
2022-11-21T14:49:21.709Z,58.50
2022-11-21T14:52:08.337Z,56.13
2022-11-21T14:55:06.331Z,51.92
2022-11-21T14:57:38.877Z,53.53
2022-11-21T15:00:07.282Z,57.53
2022-11-21T15:02:35.061Z,60.38
2022-11-21T15:05:07.910Z,57.53
2022-11-21T15:07:47.748Z,60.65
2022-11-21T15:10:33.479Z,54.13
2022-11-21T15:13:07.543Z,58.67
2022-11-21T15:15:44.567Z,66.43
2022-11-21T15:18:33.325Z,60.95
2022-11-21T15:21:04.007Z,60.80
2022-11-21T15:23:33.015Z,59.22
2022-11-21T15:26:01.779Z,66.80
2022-11-21T15:28:30.700Z,61.65
2022-11-21T15:31:21.024Z,58.22
2022-11-21T15:37:24.517Z,61.33
2022-11-21T15:39:54.187Z,56.92
2022-11-21T15:42:33.706Z,62.33
2022-11-21T15:45:27.525Z,58.10
2022-11-21T15:47:56.001Z,65.68
2022-11-21T15:50:24.991Z,63.03
2022-11-21T15:52:53.621Z,59.63
2022-11-21T15:55:29.349Z,64.53
2022-11-21T15:57:56.626Z,60.70
2022-11-21T16:00:24.397Z,63.00
2022-11-21T16:02:51.853Z,60.45
2022-11-21T16:05:19.339Z,62.08
2022-11-21T16:07:48.496Z,61.80
2022-11-21T16:10:21.280Z,66.65
2022-11-21T16:12:53.279Z,69.65
2022-11-21T16:15:21.060Z,59.97
2022-11-21T16:17:48.254Z,61.25
2022-11-21T16:20:16.045Z,63.28
2022-11-21T16:22:47.828Z,62.53
2022-11-21T16:25:16.224Z,66.40
2022-11-21T16:27:43.457Z,62.05
2022-11-21T16:30:11.287Z,62.25
2022-11-21T16:32:38.523Z,63.47
2022-11-21T16:35:06.428Z,60.10
2022-11-21T16:37:34.272Z,60.53
2022-11-21T16:40:01.767Z,59.17
2022-11-21T16:42:31.341Z,59.03
2022-11-21T16:44:58.882Z,59.67
2022-11-21T16:47:26.096Z,60.67
2022-11-21T16:49:53.648Z,63.00
2022-11-21T16:52:20.851Z,59.22
2022-11-21T16:54:48.268Z,58.95
2022-11-21T16:57:15.379Z,59.70
2022-11-21T16:59:42.841Z,63.53
2022-11-21T17:02:11.069Z,58.50
2022-11-21T17:04:38.526Z,58.05
2022-11-21T17:07:05.850Z,58.13
2022-11-21T17:09:33.372Z,58.45
2022-11-21T17:12:00.574Z,59.80
2022-11-21T17:14:28.267Z,59.03
2022-11-21T17:16:55.767Z,63.22
2022-11-21T17:19:23.342Z,58.70
2022-11-21T17:21:50.504Z,59.78
2022-11-21T17:24:18.512Z,59.63
2022-11-21T17:26:45.777Z,56.33
2022-11-21T17:29:13.241Z,56.58
2022-11-21T17:31:41.919Z,60.85
2022-11-21T17:34:09.373Z,60.10
2022-11-21T17:36:36.507Z,59.20
2022-11-21T17:39:04.064Z,60.75
2022-11-21T17:41:31.259Z,57.78
2022-11-21T17:43:59.820Z,59.30
2022-11-21T17:46:28.439Z,59.17
2022-11-21T17:48:58.770Z,60.17
2022-11-21T17:51:33.480Z,58.00
2022-11-21T17:54:01.955Z,62.50
2022-11-21T17:56:31.431Z,66.72
2022-11-21T17:58:59.200Z,62.80
2022-11-21T18:01:27.075Z,60.42
2022-11-21T18:04:03.397Z,62.38
2022-11-21T18:06:39.029Z,65.13
2022-11-21T18:09:08.128Z,63.45
2022-11-21T18:11:39.934Z,63.33
2022-11-21T18:14:10.174Z,57.50
2022-11-21T18:16:39.577Z,58.38
2022-11-21T18:19:11.274Z,57.25
2022-11-21T18:21:38.581Z,60.07
2022-11-21T18:24:06.466Z,60.60
2022-11-21T18:26:36.698Z,61.65
2022-11-21T18:29:35.298Z,59.78
2022-11-21T18:31:54.217Z,59.33
2022-11-21T18:34:21.668Z,57.97
2022-11-21T18:36:48.887Z,55.80
2022-11-21T18:39:16.393Z,57.80
2022-11-21T18:41:44.117Z,56.88
2022-11-21T18:44:17.042Z,57.03
2022-11-21T18:46:48.154Z,58.95
2022-11-21T18:49:15.626Z,59.78
2022-11-21T18:51:42.772Z,59.83
2022-11-21T18:54:11.233Z,56.58
2022-11-21T18:56:39.640Z,57.10
2022-11-21T18:59:07.457Z,57.45
2022-11-21T19:01:36.249Z,59.28
2022-11-21T19:04:04.205Z,59.42
2022-11-21T19:06:31.942Z,56.47
2022-11-21T19:08:59.532Z,57.75
2022-11-21T19:11:29.056Z,54.70
2022-11-21T19:13:57.963Z,58.17
2022-11-21T19:16:27.362Z,54.88
2022-11-21T19:21:43.083Z,56.50
2022-11-21T19:24:13.412Z,55.95
2022-11-21T19:26:41.958Z,59.92
2022-11-21T19:29:10.120Z,59.88
2022-11-21T19:31:44.207Z,57.63
2022-11-21T19:34:16.250Z,61.05
2022-11-21T19:36:44.992Z,46.97
2022-11-21T19:39:12.844Z,57.78
2022-11-21T19:41:40.294Z,55.60
2022-11-21T19:44:08.000Z,58.35
2022-11-21T19:46:38.385Z,58.47
2022-11-21T19:49:07.911Z,57.17
2022-11-21T19:51:40.943Z,58.50
2022-11-21T19:54:11.352Z,57.13
2022-11-21T19:56:39.180Z,56.83
2022-11-21T19:59:06.886Z,56.55
2022-11-21T20:01:34.925Z,58.70
2022-11-21T20:04:04.837Z,56.97
2022-11-21T20:06:37.852Z,56.88
2022-11-21T20:09:11.132Z,55.20
2022-11-21T20:11:43.475Z,55.10
2022-11-21T20:14:18.037Z,54.90
2022-11-21T20:16:49.407Z,55.70
2022-11-21T20:19:18.923Z,54.80
2022-11-21T20:21:46.942Z,56.72
2022-11-21T20:24:14.919Z,56.15
2022-11-21T20:26:44.065Z,54.95
2022-11-21T20:29:13.762Z,55.08
2022-11-21T20:31:41.464Z,52.38
2022-11-21T20:34:12.893Z,52.67
2022-11-21T20:36:41.635Z,52.60
2022-11-21T20:39:14.728Z,54.85
2022-11-21T20:41:42.029Z,51.83
2022-11-21T20:45:20.328Z,50.20
2022-11-21T20:47:16.728Z,48.10
2022-11-21T20:49:44.160Z,50.15
2022-11-21T20:54:58.832Z,51.03
2022-11-21T20:57:27.634Z,50.35
2022-11-21T20:59:55.180Z,53.47
2022-11-21T21:02:22.355Z,53.15
2022-11-21T21:04:49.857Z,50.55
2022-11-21T21:07:17.163Z,50.72
2022-11-21T21:09:44.658Z,49.17
2022-11-21T21:12:11.817Z,46.15
2022-11-21T21:14:39.307Z,48.97
2022-11-21T21:17:06.455Z,48.00
2022-11-21T21:19:33.909Z,51.20
2022-11-21T21:22:01.227Z,49.15
2022-11-21T21:24:28.833Z,52.47
2022-11-21T21:26:56.106Z,53.08
2022-11-21T21:29:23.564Z,52.20
2022-11-21T21:31:52.310Z,51.63
2022-11-21T21:34:21.988Z,52.88
2022-11-21T21:36:50.819Z,55.38
2022-11-21T21:39:18.432Z,54.20
2022-11-21T21:41:46.697Z,54.20
2022-11-21T21:44:15.728Z,54.95
2022-11-21T21:46:43.232Z,53.40
2022-11-21T21:49:11.485Z,53.00
2022-11-21T21:51:38.914Z,56.25
2022-11-21T21:54:09.204Z,56.08
2022-11-21T21:56:36.385Z,56.90
2022-11-21T21:59:03.911Z,56.92
2022-11-21T22:01:32.544Z,56.58
2022-11-21T22:04:04.765Z,54.17
2022-11-21T22:06:34.937Z,54.70
2022-11-21T22:09:03.572Z,52.03
2022-11-21T22:11:33.082Z,52.75
2022-11-21T22:14:06.211Z,54.53
2022-11-21T22:16:33.655Z,52.83
2022-11-21T22:19:01.104Z,54.50
2022-11-21T22:21:32.634Z,53.50
2022-11-21T22:24:24.353Z,55.75
2022-11-21T22:26:49.469Z,54.60
2022-11-21T22:29:17.236Z,54.17
2022-11-21T22:31:44.452Z,53.10
2022-11-21T22:34:14.070Z,55.17
2022-11-21T22:36:42.175Z,52.47
2022-11-21T22:39:09.680Z,54.42
2022-11-21T22:41:36.931Z,55.10
2022-11-21T22:44:04.498Z,56.45
2022-11-21T22:46:31.735Z,53.28
2022-11-21T22:48:59.404Z,52.05
2022-11-21T22:51:29.663Z,58.03
2022-11-21T22:53:57.579Z,56.55
2022-11-21T22:56:25.590Z,55.17
2022-11-21T22:58:53.476Z,56.28
2022-11-21T23:01:23.550Z,54.55
2022-11-21T23:03:51.763Z,55.70
2022-11-21T23:06:21.853Z,54.50
2022-11-21T23:08:49.788Z,55.47
2022-11-21T23:11:19.939Z,56.20
2022-11-21T23:13:48.037Z,55.28
2022-11-21T23:16:16.387Z,55.47
2022-11-21T23:18:44.565Z,56.70
2022-11-21T23:21:13.015Z,56.85
2022-11-21T23:23:41.144Z,54.72
2022-11-21T23:26:08.396Z,54.65
2022-11-21T23:28:36.408Z,55.72
2022-11-21T23:31:03.634Z,55.15
2022-11-21T23:33:31.202Z,54.70
2022-11-21T23:35:58.442Z,56.05
2022-11-21T23:38:25.894Z,57.85
2022-11-21T23:40:53.179Z,55.78
2022-11-21T23:43:20.752Z,56.42
2022-11-21T23:45:55.007Z,56.28
2022-11-21T23:48:24.290Z,57.15
2022-11-21T23:50:51.717Z,56.28
2022-11-21T23:53:20.532Z,55.35
2022-11-21T23:55:48.502Z,53.88
2022-11-21T23:58:16.367Z,56.97
